Flight Track Log - Related Links

Times and Time Zones

All times are in EDT time to prevent confusion due to time zone crossing. See the SWA1688 flight status page for this flight to view local times or setup timezone preferences in your user account.

Time Position Orientation Groundspeed Altitude Reporting Facility
EDT Latitude Longitude Course Direction KTS MPH feet Rate Location/Type
Sat 11:03:35 AM 39.1667 -76.7167 184° South 191 220 2,600  Level Potomac TRACON
Sat 11:04:36 AM 39.1000 -76.6667 150° Southeast 267 307 5,300 3,174 Climbing Potomac TRACON
Sat 11:05:36 AM 39.0500 -76.6000 134° Southeast 301 346 9,000 3,600 Climbing Potomac TRACON
Sat 11:06:36 AM 38.9667 -76.5333 148° Southeast 327 376 12,500 2,479 Climbing Potomac TRACON
Sat 11:07:37 AM 38.8833 -76.5000 163° South 369 425 14,000 441 Climbing Potomac TRACON
Sat 11:09:00 AM 38.6723 -76.7078 184° South  Level FlightAware Approximate
Sat 11:10:00 AM 38.6631 -76.6233 204° Southwest 387 445 14,000  Level Washington Center
Sat 11:11:01 AM 38.5831 -76.7019 218° Southwest 376 433 14,000  Level Washington Center
Sat 11:12:02 AM 38.4828 -76.7189 188° South 359 413 14,000  Level Washington Center
Sat 11:12:59 AM 38.3744 -76.7067 175° South 359 413 14,000  Level Washington Center
Sat 11:14:00 AM 38.2786 -76.6894 172° South 377 434 14,000  Level Washington Center
Sat 11:15:01 AM 38.1725 -76.6719 173° South 383 441 14,000  Level Washington Center
Sat 11:16:02 AM 38.0642 -76.6678 178° South 390 449 14,000 67 Level Washington Center
Sat 11:16:30 AM 37.9994 -76.6747 185° South 390 449 14,100  Climbing Washington Center
Sat 11:17:00 AM 37.9578 -76.6717 177° South 385 443 14,000 -66 Descending Washington Center
Sat 11:18:01 AM 37.8492 -76.6728 180° South 390 449 14,000  Level Washington Center
Sat 11:19:02 AM 37.7708 -76.5797 137° Southeast 364 419 14,000 -422 Level Washington Center
Sat 11:20:09 AM 37.6800 -76.4525 132° Southeast 393 452 13,100 -1,424 Descending Washington Center
Sat 11:21:00 AM 37.6200 -76.3836 138° Southeast 380 437 11,200 -1,768 Descending Washington Center
Sat 11:22:01 AM 37.5433 -76.2989 139° Southeast 385 443 9,800 -1,082 Descending Washington Center
Sat 11:23:02 AM 37.4750 -76.2278 140° Southeast 356 410 9,000 -1,160 Descending Washington Center
Sat 11:24:00 AM 37.3936 -76.1931 161° South 310 357 7,500 -1,412 Descending Washington Center
Sat 11:25:01 AM 37.3167 -76.1639 163° South 305 351 6,200 -1,377 Descending Washington Center
Sat 11:26:02 AM 37.2375 -76.1319 162° South 287 330 4,700 -985 Descending Washington Center
Sat 11:27:15 AM 37.1481 -76.0975 163° South 240 276 4,000 -902 Descending Washington Center
Sat 11:28:15 AM 37.0833 -76.1022 183° South 232 267 2,700 -1,082 Descending Washington Center
Sat 11:29:17 AM 37.0228 -76.1175 191° South 206 237 1,800 -871 Descending Washington Center

Login

Don't have an account? Register now (free) for customized features, flight alerts, and more!